Arvilla, North Dakota
Current Conditions -  °F | °C
As of 2:42 AM on Friday 28 Nov 2014 (Local Time) from KRDR Reporting Station
Overcast Overcast  
Wind Chill: -4°   Ceiling: 3000
Heat Index:   Visibility: 10mi
Dew Point:   Wind: 8mph
Humidity: 92%   Direction: 140°SE
Pressure: 30.04"   Gusts: NA
Location:  47.92°N, 97.49°W
Report Text: KRDR 280842Z AUTO 14007KT 10SM SCT005 BKN030 OVC050 M13/M14 A3004 RMK AO2 SNE0802
Loading
Personal Weather Stations






























Interactive Weather Map New forecast layout! Learn more

10-Day Weather Forecast

Advertisements
Track Severe Weather on mobile